Time;durP1;ratioP1;P1;durP2;ratioP2;P2;SDS_P1;SDS_P2;PMS_P1;PMS_P2;Temp;Humidity;BMP_temperature;BMP_pressure;BME280_temperature;BME280_humidity;BME280_pressure;Samples;Min_cycle;Max_cycle;Signal;HPM_P1;HPM_P2
2023/02/19 00:01:47;;;;;;;39.10;15.20;;;8.70;99.90;;;;;;6212266;23;20083;-77
2023/02/19 00:04:17;;;;;;;34.70;14.98;;;9.30;99.90;;;;;;6220372;23;20527;-81
2023/02/19 00:06:46;;;;;;;30.10;13.13;;;8.70;99.90;;;;;;6212583;23;20138;-81
2023/02/19 00:12:17;;;;;;;38.67;14.25;;;8.80;99.90;;;;;;6212623;23;20467;-84
2023/02/19 00:14:43;;;;;;;31.85;12.68;;;8.90;99.90;;;;;;6186290;23;20012;-82
2023/02/19 00:17:08;;;;;;;41.55;15.52;;;8.70;99.90;;;;;;6210484;23;20096;-83
2023/02/19 00:19:34;;;;;;;29.05;11.77;;;9.20;99.90;;;;;;6209431;23;20012;-84
2023/02/19 00:22:00;;;;;;;34.38;14.27;;;9.10;99.90;;;;;;6209264;23;20019;-81
2023/02/19 00:24:56;;;;;;;31.90;13.25;;;9.30;99.90;;;;;;6185667;23;20055;-83
2023/02/19 00:27:22;;;;;;;27.83;12.40;;;8.80;99.90;;;;;;6215887;23;20035;-79
2023/02/19 00:29:48;;;;;;;22.45;11.20;;;9.10;99.90;;;;;;6216112;23;20428;-84
2023/02/19 00:32:14;;;;;;;37.00;13.80;;;9.20;99.90;;;;;;6192327;23;20103;-81
2023/02/19 00:34:40;;;;;;;34.45;14.25;;;9.00;99.90;;;;;;6249521;23;20008;-82
2023/02/19 00:37:05;;;;;;;26.58;10.40;;;9.00;99.90;;;;;;6198179;23;20019;-84
2023/02/19 00:39:31;;;;;;;36.42;14.65;;;8.80;99.90;;;;;;6216516;23;20016;-84
2023/02/19 00:41:58;;;;;;;24.73;10.10;;;9.40;99.90;;;;;;6191075;23;20099;-83
2023/02/19 00:44:23;;;;;;;36.97;14.40;;;9.20;99.90;;;;;;6216823;23;20368;-83
2023/02/19 00:46:49;;;;;;;33.10;13.70;;;8.80;99.90;;;;;;6191987;23;20012;-78
2023/02/19 00:49:18;;;;;;;34.20;13.40;;;8.90;99.90;;;;;;6191956;23;20008;-86
2023/02/19 00:51:43;;;;;;;34.13;14.02;;;8.80;99.90;;;;;;6215434;23;20038;-84
2023/02/19 00:54:09;;;;;;;27.73;11.32;;;9.20;99.90;;;;;;6191951;23;20484;-84
2023/02/19 00:56:35;;;;;;;39.90;14.45;;;9.20;99.90;;;;;;6217351;23;20034;-85
2023/02/19 00:59:01;;;;;;;32.50;14.15;;;8.90;99.90;;;;;;6217188;23;20008;-78
2023/02/19 01:01:27;;;;;;;43.67;14.73;;;9.30;99.90;;;;;;6191683;23;20612;-82
2023/02/19 01:03:53;;;;;;;41.63;14.90;;;8.80;99.90;;;;;;6190754;23;20015;-81
2023/02/19 01:06:20;;;;;;;27.38;11.93;;;9.40;99.90;;;;;;6217034;23;20339;-80
2023/02/19 01:08:46;;;;;;;32.22;13.15;;;9.00;99.90;;;;;;6216825;23;20012;-84
2023/02/19 01:11:12;;;;;;;33.22;14.43;;;9.30;99.90;;;;;;6192455;23;20128;-83
2023/02/19 01:13:39;;;;;;;29.92;14.00;;;9.40;99.90;;;;;;6191274;23;20399;-80
2023/02/19 01:16:16;;;;;;;36.88;15.00;;;8.90;99.90;;;;;;6242304;23;20012;-81
2023/02/19 01:18:43;;;;;;;36.55;14.80;;;9.00;99.90;;;;;;6217869;23;20016;-79
2023/02/19 01:21:18;;;;;;;36.75;15.52;;;9.10;99.90;;;;;;6217268;23;20047;-85
2023/02/19 01:23:44;;;;;;;30.70;13.57;;;9.00;99.90;;;;;;6191120;23;20258;-83
2023/02/19 01:26:13;;;;;;;32.42;13.70;;;9.00;99.90;;;;;;6190122;23;20019;-83
2023/02/19 01:28:39;;;;;;;34.58;14.95;;;9.30;99.90;;;;;;6190015;23;20031;-81
2023/02/19 01:31:07;;;;;;;30.02;13.60;;;9.30;99.90;;;;;;6215689;23;20082;-81
2023/02/19 01:33:33;;;;;;;37.53;14.48;;;9.20;99.90;;;;;;6217700;23;20099;-83
2023/02/19 01:36:02;;;;;;;30.40;13.68;;;8.70;99.90;;;;;;6191655;23;20016;-80
2023/02/19 01:38:27;;;;;;;35.80;13.77;;;9.20;99.90;;;;;;6190645;23;20095;-82
2023/02/19 01:40:58;;;;;;;25.23;12.50;;;9.00;99.90;;;;;;6191467;23;20349;-82
2023/02/19 01:43:25;;;;;;;7.80;4.65;;;8.80;99.90;;;;;;6191760;23;20321;-84
2023/02/19 01:45:51;;;;;;;6.13;3.65;;;8.30;99.90;;;;;;6191341;23;20012;-83
2023/02/19 01:48:19;;;;;;;7.20;3.47;;;7.80;99.90;;;;;;6192275;23;20099;-79
2023/02/19 01:51:04;;;;;;;3.97;2.42;;;8.00;99.90;;;;;;6193899;23;20016;-79
2023/02/19 01:53:35;;;;;;;3.78;2.60;;;7.10;99.90;;;;;;6193598;23;20340;-84
2023/02/19 01:56:02;;;;;;;3.65;2.40;;;7.50;99.90;;;;;;6192833;23;20098;-80
2023/02/19 01:58:32;;;;;;;3.92;2.13;;;7.30;99.90;;;;;;6193613;23;20054;-82
2023/02/19 02:00:59;;;;;;;5.25;2.88;;;7.50;99.90;;;;;;6217679;23;20277;-79
2023/02/19 02:03:25;;;;;;;4.20;2.55;;;7.30;99.90;;;;;;6218539;23;20020;-83
2023/02/19 02:06:03;;;;;;;3.08;2.20;;;6.80;99.90;;;;;;6193099;23;20024;-82
2023/02/19 02:11:16;;;;;;;2.17;1.33;;;7.20;99.90;;;;;;6222593;23;20061;-81
2023/02/19 02:13:42;;;;;;;1.88;1.50;;;7.00;99.90;;;;;;6198454;23;20020;-81
2023/02/19 02:16:20;;;;;;;2.15;1.60;;;6.90;99.90;;;;;;6195655;23;20336;-84
2023/02/19 02:18:57;;;;;;;1.95;1.27;;;7.00;99.90;;;;;;6195107;23;20046;-78
2023/02/19 02:21:34;;;;;;;1.98;1.63;;;6.60;99.90;;;;;;6218143;23;20034;-79
2023/02/19 02:24:30;;;;;;;1.83;1.55;;;7.00;99.90;;;;;;6193711;23;20043;-79
2023/02/19 02:30:44;;;;;;;2.15;1.67;;;7.00;99.90;;;;;;6187908;23;20307;-82
2023/02/19 02:33:30;;;;;;;2.28;2.08;;;6.70;99.90;;;;;;6161359;23;20063;-83
2023/02/19 02:36:26;;;;;;;3.30;2.30;;;6.50;99.90;;;;;;6163169;23;20181;-83
2023/02/19 02:38:53;;;;;;;;;;;6.70;99.90;;;;;;6158601;23;20017;-84
2023/02/19 02:41:19;;;;;;;2.50;1.95;;;7.00;99.90;;;;;;6186389;23;19915;-80
2023/02/19 02:43:45;;;;;;;5.15;2.30;;;6.60;99.90;;;;;;6187369;23;20016;-81
2023/02/19 02:46:14;;;;;;;3.25;2.00;;;6.90;99.90;;;;;;6163031;23;20091;-82
2023/02/19 02:48:52;;;;;;;2.42;1.55;;;6.70;99.90;;;;;;6162331;23;20295;-84
2023/02/19 02:51:25;;;;;;;3.03;1.90;;;6.90;99.90;;;;;;6162435;23;20062;-79
2023/02/19 02:56:52;;;;;;;4.13;1.85;;;6.80;99.90;;;;;;6185157;23;20013;-79
2023/02/19 02:59:23;;;;;;;3.45;2.20;;;6.80;99.90;;;;;;6162259;23;20055;-82
2023/02/19 03:02:17;;;;;;;2.70;1.95;;;6.30;99.90;;;;;;6213767;23;20099;-80
2023/02/19 03:08:02;;;;;;;3.45;2.13;;;6.30;99.90;;;;;;6188467;23;20021;-80
2023/02/19 03:10:39;;;;;;;4.68;2.60;;;6.80;99.90;;;;;;6187142;23;20013;-83
2023/02/19 03:21:37;;;;;;;7.22;3.90;;;6.30;99.90;;;;;;6186526;23;20012;-81
2023/02/19 03:26:52;;;;;;;8.32;4.32;;;6.80;99.90;;;;;;6185039;23;20095;-79
2023/02/19 03:29:22;;;;;;;9.75;4.50;;;6.50;99.90;;;;;;6178659;23;20020;-82
2023/02/19 03:31:59;;;;;;;10.60;5.05;;;6.40;99.90;;;;;;6218904;23;20294;-78
2023/02/19 03:34:40;;;;;;;7.25;4.30;;;6.30;99.90;;;;;;6189736;23;20058;-81
2023/02/19 03:37:12;;;;;;;11.40;4.90;;;6.80;99.90;;;;;;6190733;23;20065;-79
2023/02/19 03:39:43;;;;;;;9.80;4.78;;;6.30;99.90;;;;;;6189182;23;20012;-81
2023/02/19 03:42:14;;;;;;;10.45;5.38;;;6.60;99.90;;;;;;6189866;23;20316;-79
2023/02/19 03:44:49;;;;;;;10.52;5.68;;;6.30;99.90;;;;;;6189004;23;20023;-84
2023/02/19 03:47:42;;;;;;;14.63;6.70;;;6.30;99.90;;;;;;6189702;23;20004;-84
2023/02/19 03:50:29;;;;;;;12.50;6.50;;;6.60;99.90;;;;;;6189753;23;20020;-82
2023/02/19 03:53:30;;;;;;;8.38;5.72;;;6.30;99.90;;;;;;6189188;23;20058;-77
2023/02/19 03:56:35;;;;;;;8.73;5.80;;;6.50;99.90;;;;;;6189516;23;20012;-84
2023/02/19 03:59:09;;;;;;;9.13;5.78;;;6.50;99.90;;;;;;6187005;23;20035;-82
2023/02/19 04:01:47;;;;;;;7.57;5.63;;;6.00;99.90;;;;;;6188182;23;20138;-78
2023/02/19 04:04:23;;;;;;;13.15;6.07;;;6.50;99.90;;;;;;6213626;23;20027;-85
2023/02/19 04:06:53;;;;;;;8.05;6.07;;;6.10;99.90;;;;;;6214570;23;20019;-83
2023/02/19 04:09:21;;;;;;;10.43;5.50;;;6.20;99.90;;;;;;6213586;23;20023;-80
2023/02/19 04:11:49;;;;;;;6.25;5.00;;;6.30;99.90;;;;;;6190068;23;20035;-81
2023/02/19 04:14:59;;;;;;;9.38;5.40;;;6.50;99.90;;;;;;6188959;23;20016;-84
2023/02/19 04:17:34;;;;;;;6.80;5.07;;;6.50;99.90;;;;;;6188986;23;20452;-83
2023/02/19 04:20:02;;;;;;;;;;;6.20;99.90;;;;;;6190262;23;20032;-82
2023/02/19 04:22:28;;;;;;;7.20;4.43;;;6.00;99.90;;;;;;6188960;23;19919;-82
2023/02/19 04:25:10;;;;;;;7.47;4.05;;;6.50;99.90;;;;;;6212906;23;20020;-83
2023/02/19 04:27:37;;;;;;;6.80;4.72;;;6.30;99.90;;;;;;6189351;23;20090;-77
2023/02/19 04:30:08;;;;;;;7.13;4.53;;;5.80;99.90;;;;;;6188504;23;20115;-80
2023/02/19 04:32:34;;;;;;;8.73;5.47;;;5.90;99.90;;;;;;6189574;23;20046;-80
2023/02/19 04:35:00;;;;;;;7.53;4.82;;;6.30;99.90;;;;;;6191213;23;20119;-84
2023/02/19 04:37:25;;;;;;;8.38;5.63;;;6.10;99.90;;;;;;6216528;23;20008;-81
2023/02/19 04:39:51;;;;;;;9.90;7.30;;;6.10;99.90;;;;;;6190542;23;20017;-78
2023/02/19 04:42:17;;;;;;;9.48;7.05;;;6.10;99.90;;;;;;6192154;23;20012;-80
2023/02/19 04:44:43;;;;;;;9.02;6.32;;;6.10;99.90;;;;;;6190805;23;20119;-81
2023/02/19 04:47:08;;;;;;;8.73;5.55;;;5.70;99.90;;;;;;6189986;23;20398;-77
2023/02/19 04:49:34;;;;;;;7.13;4.70;;;5.70;99.90;;;;;;6217177;23;20034;-85
2023/02/19 04:51:59;;;;;;;7.57;4.45;;;6.10;99.90;;;;;;6191612;23;20020;-82
2023/02/19 04:54:25;;;;;;;5.97;4.50;;;5.70;99.90;;;;;;6191027;23;20019;-83
2023/02/19 04:56:51;;;;;;;6.47;4.65;;;6.10;99.90;;;;;;6190529;23;20137;-81
2023/02/19 04:59:17;;;;;;;11.88;4.55;;;6.00;99.90;;;;;;6216219;23;20550;-80
2023/02/19 05:01:42;;;;;;;6.45;3.90;;;6.00;99.90;;;;;;6216577;23;20019;-79
2023/02/19 05:04:08;;;;;;;4.57;3.90;;;5.60;99.90;;;;;;6192333;23;20058;-80
2023/02/19 05:06:34;;;;;;;4.80;3.80;;;6.00;99.90;;;;;;6212534;23;20016;-78
2023/02/19 05:08:59;;;;;;;5.30;3.13;;;5.60;99.90;;;;;;6214318;23;20357;-83
2023/02/19 05:11:25;;;;;;;3.70;2.67;;;5.70;99.90;;;;;;6191240;23;20293;-79
2023/02/19 05:13:51;;;;;;;4.07;2.33;;;5.80;99.90;;;;;;6191715;23;20145;-80
2023/02/19 05:16:17;;;;;;;3.35;2.05;;;5.50;99.90;;;;;;6189456;23;20197;-81
2023/02/19 05:18:45;;;;;;;5.80;2.50;;;5.40;99.90;;;;;;6191818;23;20008;-82
2023/02/19 05:21:12;;;;;;;4.32;2.70;;;5.40;99.90;;;;;;6192914;23;20015;-78
2023/02/19 05:23:37;;;;;;;3.15;2.40;;;5.60;99.90;;;;;;6218339;23;20091;-80
2023/02/19 05:26:11;;;;;;;3.20;2.40;;;5.70;99.90;;;;;;6191054;23;20047;-77
2023/02/19 05:28:37;;;;;;;3.53;2.30;;;5.80;99.90;;;;;;6215307;23;20016;-84
2023/02/19 05:31:05;;;;;;;3.70;2.50;;;5.40;99.90;;;;;;6192146;23;20082;-81
2023/02/19 05:33:31;;;;;;;3.90;1.95;;;5.50;99.90;;;;;;6192174;23;20024;-84
2023/02/19 05:35:57;;;;;;;4.60;1.90;;;5.30;99.90;;;;;;6192952;23;20141;-86
2023/02/19 05:38:23;;;;;;;2.40;1.70;;;5.30;99.90;;;;;;6191916;23;20020;-78
2023/02/19 05:40:49;;;;;;;4.10;1.77;;;5.70;99.90;;;;;;6191903;23;20016;-84
2023/02/19 05:43:15;;;;;;;2.88;1.58;;;5.70;99.90;;;;;;6192969;23;20016;-82
2023/02/19 05:45:43;;;;;;;2.47;1.40;;;5.60;99.90;;;;;;6217652;23;20024;-80
2023/02/19 05:48:10;;;;;;;1.63;1.27;;;5.70;99.90;;;;;;6191875;23;20016;-85
2023/02/19 05:50:36;;;;;;;3.80;1.20;;;5.20;99.90;;;;;;6193070;23;20344;-82
2023/02/19 05:53:03;;;;;;;5.68;1.20;;;5.70;99.90;;;;;;6192158;23;20020;-84
2023/02/19 05:55:34;;;;;;;3.08;1.20;;;5.20;99.90;;;;;;6192573;23;20044;-81
2023/02/19 05:58:00;;;;;;;2.75;1.00;;;5.60;99.90;;;;;;6193860;23;20020;-81
2023/02/19 06:00:26;;;;;;;3.08;1.08;;;5.50;99.90;;;;;;6192824;23;20008;-86
2023/02/19 06:02:52;;;;;;;3.47;0.95;;;5.60;99.90;;;;;;6193645;23;20232;-84
2023/02/19 06:05:19;;;;;;;3.85;0.80;;;5.50;99.90;;;;;;6193592;23;20070;-81
2023/02/19 06:07:44;;;;;;;5.55;0.80;;;5.20;99.90;;;;;;6192876;23;20058;-83
2023/02/19 06:10:11;;;;;;;2.85;0.77;;;5.10;99.90;;;;;;6192515;23;20016;-81
2023/02/19 06:12:37;;;;;;;3.22;0.60;;;5.10;99.90;;;;;;6217872;23;20487;-81
2023/02/19 06:15:05;;;;;;;2.67;0.40;;;5.30;99.90;;;;;;6193036;23;20405;-83
2023/02/19 06:17:31;;;;;;;3.67;0.47;;;5.10;99.90;;;;;;6193656;23;20099;-85
2023/02/19 06:19:57;;;;;;;2.63;0.60;;;5.00;99.90;;;;;;6193912;23;20008;-80
2023/02/19 06:22:23;;;;;;;3.38;0.50;;;5.10;99.90;;;;;;6216658;23;20078;-80
2023/02/19 06:24:48;;;;;;;3.33;0.60;;;5.50;99.90;;;;;;6218264;23;20119;-81
2023/02/19 06:27:14;;;;;;;3.35;0.80;;;5.50;99.90;;;;;;6218535;23;20083;-78
2023/02/19 06:29:40;;;;;;;7.72;1.00;;;5.50;99.90;;;;;;6191767;23;20081;-81
2023/02/19 06:32:06;;;;;;;5.53;1.00;;;5.20;99.90;;;;;;6190738;23;20142;-82
2023/02/19 06:34:31;;;;;;;5.93;0.90;;;5.10;99.90;;;;;;6218069;23;20035;-79
2023/02/19 06:36:58;;;;;;;5.80;0.90;;;5.10;99.90;;;;;;6191861;23;20012;-85
2023/02/19 06:39:24;;;;;;;2.45;0.77;;;5.00;99.90;;;;;;6191928;23;20014;-81
2023/02/19 06:41:50;;;;;;;4.53;0.80;;;5.40;99.90;;;;;;6216095;23;20415;-79
2023/02/19 06:44:16;;;;;;;2.40;0.50;;;5.00;99.90;;;;;;6217503;23;20091;-80
2023/02/19 06:46:42;;;;;;;4.20;0.80;;;5.10;99.90;;;;;;6191399;23;20436;-82
2023/02/19 06:49:07;;;;;;;3.72;1.00;;;4.90;99.90;;;;;;6191064;23;20016;-85
2023/02/19 06:51:33;;;;;;;2.92;0.93;;;5.40;99.90;;;;;;6191637;23;20434;-85
2023/02/19 06:54:01;;;;;;;5.05;1.00;;;5.40;99.90;;;;;;6192566;23;20436;-84
2023/02/19 06:56:32;;;;;;;4.88;1.30;;;5.40;99.90;;;;;;6193379;23;20020;-79
2023/02/19 06:59:01;;;;;;;5.05;1.10;;;5.00;99.90;;;;;;6217611;23;20008;-81
2023/02/19 07:01:31;;;;;;;3.38;1.17;;;5.40;99.90;;;;;;6193277;23;20012;-79
2023/02/19 07:03:57;;;;;;;3.58;1.20;;;5.30;99.90;;;;;;6201071;23;20020;-81
2023/02/19 07:06:24;;;;;;;4.43;1.50;;;5.40;99.90;;;;;;6197895;23;20115;-83
2023/02/19 07:08:50;;;;;;;4.63;1.60;;;5.50;99.90;;;;;;6192024;23;20019;-83
2023/02/19 07:11:17;;;;;;;9.13;2.33;;;5.30;99.90;;;;;;6191514;23;20018;-80
2023/02/19 07:13:43;;;;;;;5.82;1.67;;;5.60;99.90;;;;;;6217135;23;20123;-81
2023/02/19 07:16:10;;;;;;;2.28;1.65;;;5.50;99.90;;;;;;6216299;23;20016;-82
2023/02/19 07:18:37;;;;;;;5.57;1.70;;;5.50;99.90;;;;;;6217140;23;20372;-83
2023/02/19 07:21:08;;;;;;;4.43;1.80;;;5.60;99.90;;;;;;6192339;23;20313;-83
2023/02/19 07:23:34;;;;;;;8.13;1.85;;;5.30;99.90;;;;;;6245323;23;20408;-84
2023/02/19 07:26:19;;;;;;;4.55;1.65;;;5.10;99.90;;;;;;6192969;23;20051;-82
2023/02/19 07:28:47;;;;;;;6.10;1.60;;;5.50;99.90;;;;;;6219960;23;20023;-81
2023/02/19 07:31:14;;;;;;;5.28;1.95;;;5.20;99.90;;;;;;6220741;23;20024;-82
2023/02/19 07:33:43;;;;;;;6.25;1.98;;;5.40;99.90;;;;;;6220789;23;20046;-85
2023/02/19 07:36:10;;;;;;;2.65;1.42;;;5.00;99.90;;;;;;6221974;23;20015;-80
2023/02/19 07:38:35;;;;;;;2.85;1.55;;;5.30;99.90;;;;;;6257886;23;20367;-79
2023/02/19 07:41:22;;;;;;;7.55;2.45;;;5.00;99.90;;;;;;6217316;23;20020;-82
2023/02/19 07:43:48;;;;;;;6.10;2.63;;;5.00;99.90;;;;;;6190808;23;20028;-87
2023/02/19 07:46:13;;;;;;;6.88;2.40;;;5.00;99.90;;;;;;6213780;23;20345;-84
2023/02/19 07:48:41;;;;;;;9.65;2.53;;;5.10;99.90;;;;;;6217440;23;20016;-82
2023/02/19 07:51:10;;;;;;;5.03;2.50;;;5.30;99.90;;;;;;6191480;23;20020;-84
2023/02/19 07:53:36;;;;;;;4.43;2.30;;;5.40;99.90;;;;;;6214786;23;20016;-83
2023/02/19 07:56:05;;;;;;;7.45;2.13;;;5.00;99.90;;;;;;6215287;23;20321;-83
2023/02/19 07:58:32;;;;;;;3.92;2.40;;;5.00;99.90;;;;;;6244429;23;20008;-83
2023/02/19 08:01:09;;;;;;;3.90;2.03;;;5.30;99.90;;;;;;6190989;23;20016;-81
2023/02/19 08:03:35;;;;;;;6.53;1.80;;;5.20;99.90;;;;;;6191456;23;20432;-82
2023/02/19 08:06:01;;;;;;;5.88;1.75;;;5.00;99.90;;;;;;6190249;23;20397;-81
2023/02/19 08:08:27;;;;;;;6.05;1.50;;;5.30;99.90;;;;;;6214863;23;20019;-82
2023/02/19 08:13:37;;;;;;;4.90;1.35;;;5.50;99.90;;;;;;6216879;23;20024;-84
2023/02/19 08:16:02;;;;;;;3.67;1.30;;;5.50;99.90;;;;;;6216365;23;20093;-84
2023/02/19 08:18:31;;;;;;;3.38;1.35;;;5.50;99.90;;;;;;6188662;23;20012;-81
2023/02/19 08:20:58;;;;;;;8.45;1.42;;;5.60;99.90;;;;;;6188924;23;20013;-86
2023/02/19 08:23:25;;;;;;;4.03;1.30;;;5.60;99.90;;;;;;6241506;23;20020;-82
2023/02/19 08:25:52;;;;;;;6.00;1.45;;;5.60;99.90;;;;;;6192428;23;20463;-86
2023/02/19 08:28:18;;;;;;;4.80;1.25;;;5.50;99.90;;;;;;6215191;23;20012;-81
2023/02/19 08:30:45;;;;;;;5.03;1.20;;;5.60;99.90;;;;;;6215915;23;20024;-81
2023/02/19 08:33:15;;;;;;;4.15;1.10;;;5.60;99.90;;;;;;6215106;23;20027;-83
2023/02/19 08:35:41;;;;;;;3.25;0.77;;;5.30;99.90;;;;;;6215477;23;20012;-87
2023/02/19 08:38:08;;;;;;;5.03;0.90;;;5.60;99.90;;;;;;6189156;23;20020;-81
2023/02/19 08:41:21;;;;;;;2.90;0.90;;;5.70;99.90;;;;;;6214839;23;20456;-84
2023/02/19 08:43:46;;;;;;;5.43;1.17;;;5.80;99.90;;;;;;6188544;23;20012;-82
2023/02/19 08:46:12;;;;;;;2.88;1.00;;;5.50;99.90;;;;;;6213636;23;20474;-80
2023/02/19 08:48:39;;;;;;;7.38;1.50;;;5.70;99.90;;;;;;6213243;23;20035;-85
2023/02/19 08:51:08;;;;;;;4.50;1.50;;;5.80;99.90;;;;;;6215415;23;20434;-84
2023/02/19 08:53:35;;;;;;;3.60;1.08;;;5.70;99.90;;;;;;6214412;23;20015;-82
2023/02/19 08:56:09;;;;;;;4.32;1.63;;;5.90;99.90;;;;;;6185597;23;20012;-80
2023/02/19 08:58:36;;;;;;;5.88;1.88;;;5.80;99.90;;;;;;6237791;23;20023;-81
2023/02/19 09:01:02;;;;;;;6.72;1.75;;;6.10;99.90;;;;;;6237242;23;20047;-82
2023/02/19 09:03:28;;;;;;;8.73;1.52;;;5.80;99.90;;;;;;6210128;23;20056;-78
2023/02/19 09:05:54;;;;;;;4.13;1.15;;;5.80;99.90;;;;;;6214242;23;20008;-85
2023/02/19 09:08:19;;;;;;;5.03;1.30;;;6.00;99.90;;;;;;6211671;23;20073;-85
2023/02/19 09:11:26;;;;;;;4.60;1.40;;;6.20;99.90;;;;;;6186807;23;20318;-83
2023/02/19 09:13:54;;;;;;;6.10;1.33;;;5.90;99.90;;;;;;6211606;23;20079;-79
2023/02/19 09:16:20;;;;;;;6.65;1.02;;;5.90;99.90;;;;;;6187427;23;20068;-81
2023/02/19 09:18:45;;;;;;;7.30;1.33;;;6.00;99.90;;;;;;6212582;23;20285;-84
2023/02/19 09:21:11;;;;;;;4.65;1.40;;;6.00;99.90;;;;;;6188024;23;20408;-80
2023/02/19 09:23:37;;;;;;;5.25;1.50;;;5.90;99.90;;;;;;6211686;23;20172;-81
2023/02/19 09:26:08;;;;;;;5.13;1.30;;;6.00;99.90;;;;;;6187103;23;20024;-84
2023/02/19 09:28:35;;;;;;;5.55;1.15;;;6.20;99.90;;;;;;6211329;23;20016;-80
2023/02/19 09:31:10;;;;;;;6.25;1.27;;;6.10;99.90;;;;;;6163633;23;20032;-83
2023/02/19 09:33:36;;;;;;;;;;;6.20;99.90;;;;;;6186784;23;20775;-83
2023/02/19 09:36:02;;;;;;;7.05;1.40;;;6.50;99.90;;;;;;6212450;23;19964;-85
2023/02/19 09:38:29;;;;;;;5.68;1.40;;;6.70;99.90;;;;;;6239782;23;20314;-85
2023/02/19 09:44:31;;;;;;;5.53;1.33;;;6.70;99.90;;;;;;6241169;23;20020;-81
2023/02/19 09:46:59;;;;;;;3.70;1.25;;;6.70;99.90;;;;;;6186463;23;20012;-82
2023/02/19 09:49:38;;;;;;;3.53;1.00;;;6.80;99.90;;;;;;6212656;23;20035;-82
2023/02/19 09:52:14;;;;;;;7.15;1.27;;;6.40;99.90;;;;;;6214745;23;20198;-81
2023/02/19 09:54:41;;;;;;;5.68;1.10;;;6.70;99.90;;;;;;6189528;23;20032;-80
2023/02/19 09:57:16;;;;;;;4.22;1.00;;;6.70;99.90;;;;;;6241564;23;20059;-81
2023/02/19 09:59:57;;;;;;;7.10;1.10;;;6.60;99.90;;;;;;6210245;23;20013;-83
2023/02/19 10:02:26;;;;;;;4.50;1.20;;;6.70;99.90;;;;;;6186440;23;20527;-84
2023/02/19 10:04:53;;;;;;;3.30;1.33;;;6.90;99.90;;;;;;6211453;23;20146;-81
2023/02/19 10:07:22;;;;;;;7.00;1.20;;;6.90;99.90;;;;;;6187546;23;20019;-82
2023/02/19 10:10:01;;;;;;;3.97;1.00;;;6.70;99.90;;;;;;6238617;23;20047;-81
2023/02/19 10:12:31;;;;;;;6.43;1.02;;;6.80;99.90;;;;;;6213071;23;20024;-80
2023/02/19 10:15:35;;;;;;;3.90;0.82;;;7.20;99.90;;;;;;6212998;23;20099;-83
2023/02/19 10:18:02;;;;;;;7.20;1.17;;;7.20;99.90;;;;;;6087119;23;20014;-80
2023/02/19 10:20:28;;;;;;;3.67;1.00;;;7.40;99.90;;;;;;6038900;23;20019;-83
2023/02/19 10:23:04;;;;;;;7.53;1.25;;;7.40;99.90;;;;;;6064215;23;20435;-81
2023/02/19 10:25:32;;;;;;;6.35;1.17;;;7.40;99.90;;;;;;6088028;23;20022;-83
2023/02/19 10:27:59;;;;;;;5.85;1.30;;;7.80;99.90;;;;;;6087384;23;20089;-82
2023/02/19 10:30:29;;;;;;;5.07;1.30;;;7.70;99.90;;;;;;6034743;23;20019;-80
2023/02/19 10:33:13;;;;;;;8.10;1.20;;;7.50;99.90;;;;;;6035670;23;20031;-83
2023/02/19 10:35:57;;;;;;;5.53;1.15;;;7.40;99.90;;;;;;6036702;23;20282;-82
2023/02/19 10:38:27;;;;;;;4.63;1.20;;;7.30;99.90;;;;;;6037739;23;20018;-81
2023/02/19 10:44:05;;;;;;;4.00;0.95;;;7.00;99.90;;;;;;6057657;23;20023;-82
2023/02/19 10:46:35;;;;;;;6.93;1.20;;;7.00;99.90;;;;;;6034817;23;20022;-81
2023/02/19 10:49:04;;;;;;;3.53;0.95;;;7.00;99.90;;;;;;6037949;23;20141;-83
2023/02/19 10:51:41;;;;;;;5.10;1.38;;;7.10;99.90;;;;;;6013542;23;20027;-80
2023/02/19 10:54:19;;;;;;;5.72;1.10;;;7.40;99.90;;;;;;6147670;23;20139;-80
2023/02/19 10:56:45;;;;;;;5.68;1.38;;;7.50;99.90;;;;;;6161284;23;20020;-84
2023/02/19 10:59:17;;;;;;;6.45;1.30;;;7.50;99.90;;;;;;6160009;23;20688;-82
2023/02/19 11:02:01;;;;;;;8.38;1.33;;;7.70;99.90;;;;;;6192652;23;20016;-79
2023/02/19 11:04:32;;;;;;;8.15;1.00;;;7.70;99.90;;;;;;6169425;23;20028;-80
2023/02/19 11:07:12;;;;;;;5.05;1.00;;;8.00;99.90;;;;;;6165068;23;20020;-81
2023/02/19 11:09:48;;;;;;;3.97;0.90;;;8.10;99.90;;;;;;6165087;23;20016;-81
2023/02/19 11:15:55;;;;;;;5.70;0.93;;;8.20;99.90;;;;;;6212428;23;20007;-84
2023/02/19 11:18:30;;;;;;;4.10;0.68;;;8.00;99.90;;;;;;6186306;23;20016;-80
2023/02/19 11:21:05;;;;;;;3.45;0.82;;;8.30;99.90;;;;;;6188442;23;20009;-83
2023/02/19 11:23:45;;;;;;;3.20;0.68;;;8.40;99.90;;;;;;6186945;23;20444;-83
2023/02/19 11:26:25;;;;;;;4.70;0.85;;;8.30;99.90;;;;;;6161408;23;20035;-82
2023/02/19 11:28:59;;;;;;;5.55;1.13;;;8.20;99.90;;;;;;6187123;23;20013;-83
2023/02/19 11:31:30;;;;;;;6.97;1.13;;;8.40;99.90;;;;;;6206156;23;20436;-81
2023/02/19 11:34:02;;;;;;;5.00;0.80;;;8.40;99.90;;;;;;6192054;23;20048;-82
2023/02/19 11:36:36;;;;;;;2.72;0.60;;;8.40;99.90;;;;;;6191693;23;20097;-80
2023/02/19 11:39:13;;;;;;;5.82;1.05;;;8.30;99.90;;;;;;6191272;23;20019;-82
2023/02/19 11:42:21;;;;;;;4.97;0.90;;;8.50;99.90;;;;;;6217500;23;20095;-83
2023/02/19 11:45:06;;;;;;;4.68;1.08;;;8.40;99.90;;;;;;6191219;23;20016;-81
2023/02/19 11:47:48;;;;;;;4.13;1.08;;;8.40;99.90;;;;;;6215769;23;20094;-81
2023/02/19 11:50:31;;;;;;;4.32;0.98;;;8.70;99.90;;;;;;6192923;23;20008;-82
2023/02/19 11:53:20;;;;;;;5.20;1.20;;;8.60;99.90;;;;;;6190973;23;20020;-82
2023/02/19 11:56:11;;;;;;;6.10;1.15;;;8.70;99.90;;;;;;6192290;23;20012;-81
2023/02/19 11:59:00;;;;;;;3.72;0.90;;;8.40;99.90;;;;;;6243244;23;20484;-78
2023/02/19 12:01:47;;;;;;;4.80;0.95;;;8.60;99.90;;;;;;6217577;23;20067;-81
2023/02/19 12:04:22;;;;;;;6.10;1.00;;;8.60;99.90;;;;;;6192141;23;20031;-84
2023/02/19 12:07:09;;;;;;;6.43;1.00;;;8.30;99.90;;;;;;6192277;23;20016;-80
2023/02/19 12:09:49;;;;;;;4.05;0.90;;;8.10;99.90;;;;;;6191481;23;20110;-81
2023/02/19 12:13:01;;;;;;;5.65;0.93;;;8.00;99.90;;;;;;6191491;23;20027;-83
2023/02/19 12:16:05;;;;;;;4.25;0.98;;;8.30;99.90;;;;;;6192023;23;20018;-82
2023/02/19 12:18:50;;;;;;;6.38;0.93;;;8.40;99.90;;;;;;6244054;23;20027;-83
2023/02/19 12:21:23;;;;;;;6.22;1.00;;;8.40;99.90;;;;;;6192484;23;20015;-83
2023/02/19 12:24:07;;;;;;;6.75;1.23;;;8.50;99.90;;;;;;6192076;23;20424;-80
2023/02/19 12:26:46;;;;;;;4.68;0.95;;;8.50;99.90;;;;;;6192237;23;20073;-81
2023/02/19 12:29:14;;;;;;;3.72;0.45;;;8.40;99.90;;;;;;6190803;23;20020;-81
2023/02/19 12:32:00;;;;;;;3.70;1.05;;;8.50;99.90;;;;;;6214385;23;20073;-81
2023/02/19 12:34:41;;;;;;;3.33;0.80;;;8.50;99.90;;;;;;6190872;23;20094;-83
2023/02/19 12:37:31;;;;;;;5.10;0.95;;;8.60;99.90;;;;;;6216614;23;20016;-84
2023/02/19 12:40:09;;;;;;;5.70;1.73;;;8.30;99.90;;;;;;6188159;23;20047;-82
2023/02/19 12:42:59;;;;;;;5.55;1.00;;;8.20;99.90;;;;;;6189560;23;20165;-81
2023/02/19 12:45:32;;;;;;;2.47;0.57;;;8.10;99.90;;;;;;6189956;23;20016;-78
2023/02/19 12:48:16;;;;;;;3.20;0.70;;;8.00;99.90;;;;;;6214915;23;20282;-79
2023/02/19 12:50:45;;;;;;;5.07;0.82;;;8.00;99.90;;;;;;6189361;23;20016;-82
2023/02/19 12:53:43;;;;;;;3.25;0.60;;;8.10;99.90;;;;;;6187141;23;20051;-82
2023/02/19 12:56:36;;;;;;;3.08;0.80;;;8.00;99.90;;;;;;6213151;23;20024;-83
2023/02/19 12:59:11;;;;;;;4.78;0.68;;;8.10;99.90;;;;;;6039681;23;20014;-85
2023/02/19 13:02:01;;;;;;;5.60;0.80;;;8.40;99.90;;;;;;6065235;23;20335;-81
2023/02/19 13:04:32;;;;;;;3.50;0.68;;;8.40;99.90;;;;;;6040126;23;20090;-85
2023/02/19 13:07:08;;;;;;;3.22;0.80;;;8.60;99.90;;;;;;6063919;23;20019;-81
2023/02/19 13:09:55;;;;;;;6.57;0.73;;;8.60;99.90;;;;;;6015181;23;20363;-80
2023/02/19 13:12:35;;;;;;;1.95;0.60;;;8.80;99.90;;;;;;6041804;23;20019;-85
2023/02/19 13:15:14;;;;;;;5.13;0.80;;;8.70;99.90;;;;;;6091308;23;20058;-82
2023/02/19 13:17:52;;;;;;;5.85;0.77;;;8.70;99.90;;;;;;6042884;23;20046;-85
2023/02/19 13:20:24;;;;;;;3.65;0.70;;;8.50;99.90;;;;;;6042514;23;20113;-80
2023/02/19 13:26:41;;;;;;;5.38;1.10;;;8.50;99.90;;;;;;6067254;23;20078;-79
2023/02/19 13:29:10;;;;;;;7.60;1.13;;;8.30;99.90;;;;;;6067301;23;20014;-83
2023/02/19 13:32:02;;;;;;;8.40;1.20;;;8.20;99.90;;;;;;6041439;23;20332;-83
2023/02/19 13:35:05;;;;;;;10.52;1.42;;;8.20;99.90;;;;;;6068129;23;20019;-83
2023/02/19 13:37:35;;;;;;;7.43;1.05;;;8.20;99.90;;;;;;6216314;23;20032;-82
2023/02/19 13:40:25;;;;;;;6.32;1.30;;;8.20;99.90;;;;;;6216206;23;20019;-79
2023/02/19 13:42:56;;;;;;;4.40;1.02;;;8.10;99.90;;;;;;6191847;23;20366;-84
2023/02/19 13:45:32;;;;;;;8.52;1.20;;;8.20;99.90;;;;;;6219511;23;20426;-80
2023/02/19 13:48:01;;;;;;;7.63;1.15;;;8.30;99.90;;;;;;6192745;23;20095;-81
2023/02/19 13:50:32;;;;;;;7.88;1.10;;;8.40;99.90;;;;;;6192896;23;20059;-80
2023/02/19 13:53:22;;;;;;;7.25;1.02;;;8.20;99.90;;;;;;6217600;23;20086;-85
2023/02/19 13:55:51;;;;;;;10.82;1.17;;;8.10;99.90;;;;;;6193138;23;20083;-80
2023/02/19 13:58:32;;;;;;;9.05;1.42;;;8.30;99.90;;;;;;6192944;23;20328;-82
2023/02/19 14:01:03;;;;;;;9.85;1.48;;;8.00;99.90;;;;;;6194682;23;20035;-80
2023/02/19 14:03:38;;;;;;;9.52;1.38;;;8.30;99.90;;;;;;6194671;23;20027;-81
2023/02/19 14:06:08;;;;;;;8.85;1.38;;;8.00;99.90;;;;;;6218306;23;20103;-82